createdAt,value
2018-11-21T00:02:02.964Z,15.13
2018-11-21T00:04:50.609Z,15.90
2018-11-21T00:07:38.228Z,15.58
2018-11-21T00:10:25.863Z,15.45
2018-11-21T00:13:13.469Z,14.98
2018-11-21T00:16:01.102Z,15.23
2018-11-21T00:18:48.750Z,15.08
2018-11-21T00:21:36.640Z,14.30
2018-11-21T00:24:24.252Z,14.93
2018-11-21T00:27:11.882Z,14.47
2018-11-21T00:29:59.842Z,14.73
2018-11-21T00:32:47.488Z,15.85
2018-11-21T00:35:35.118Z,14.50
2018-11-21T00:38:22.731Z,13.93
2018-11-21T00:41:10.363Z,15.50
2018-11-21T00:43:57.976Z,14.98
2018-11-21T00:46:45.636Z,14.25
2018-11-21T00:49:33.306Z,15.70
2018-11-21T00:52:20.932Z,15.20
2018-11-21T00:55:08.842Z,16.05
2018-11-21T00:57:37.360Z,15.18
2018-11-21T01:00:25.015Z,14.25
2018-11-21T01:03:12.647Z,14.50
2018-11-21T01:06:00.276Z,15.95
2018-11-21T01:08:47.910Z,13.60
2018-11-21T01:11:35.590Z,15.30
2018-11-21T01:14:24.252Z,15.83
2018-11-21T01:17:10.963Z,14.60
2018-11-21T01:19:58.572Z,16.07
2018-11-21T01:22:46.492Z,14.35
2018-11-21T01:25:34.113Z,14.20
2018-11-21T01:28:21.826Z,14.20
2018-11-21T01:31:09.517Z,15.30
2018-11-21T01:33:57.099Z,13.75
2018-11-21T01:36:44.775Z,14.60
2018-11-21T01:39:32.405Z,14.15
2018-11-21T01:42:20.042Z,14.80
2018-11-21T01:45:07.737Z,14.30
2018-11-21T01:47:55.378Z,15.28
2018-11-21T01:50:43.028Z,15.00
2018-11-21T01:53:30.653Z,15.50
2018-11-21T01:56:18.543Z,15.38
2018-11-21T01:59:06.160Z,17.15
2018-11-21T02:01:53.821Z,15.43
2018-11-21T02:04:41.897Z,14.78
2018-11-21T02:07:29.549Z,15.68
2018-11-21T02:10:17.211Z,15.38
2018-11-21T02:13:05.052Z,15.13
2018-11-21T02:15:52.736Z,15.23
2018-11-21T02:18:40.375Z,15.38
2018-11-21T02:21:28.014Z,15.85
2018-11-21T02:24:15.631Z,14.07
2018-11-21T02:27:03.305Z,16.40
2018-11-21T02:29:50.963Z,15.30
2018-11-21T02:32:38.606Z,14.43
2018-11-21T02:35:26.230Z,14.35
2018-11-21T02:38:13.858Z,15.45
2018-11-21T02:40:42.044Z,15.23
2018-11-21T02:43:29.694Z,14.50
2018-11-21T02:46:17.302Z,14.75
2018-11-21T02:48:45.725Z,14.03
2018-11-21T02:51:33.377Z,15.15
2018-11-21T02:54:20.992Z,14.95
2018-11-21T02:57:29.324Z,15.90
2018-11-21T03:00:18.212Z,14.73
2018-11-21T03:02:46.397Z,16.70
2018-11-21T03:05:34.044Z,15.38
2018-11-21T03:11:10.946Z,14.45
2018-11-21T03:13:58.558Z,15.90
2018-11-21T03:16:46.195Z,17.67
2018-11-21T03:19:33.838Z,15.55
2018-11-21T03:22:21.462Z,17.05
2018-11-21T03:25:09.134Z,15.58
2018-11-21T03:27:56.762Z,17.35
2018-11-21T03:30:44.393Z,16.62
2018-11-21T03:33:32.019Z,16.10
2018-11-21T03:36:20.821Z,17.10
2018-11-21T03:39:09.567Z,15.20
2018-11-21T03:41:57.211Z,16.75
2018-11-21T03:44:44.860Z,17.17
2018-11-21T03:47:32.486Z,16.65
2018-11-21T03:50:20.134Z,17.02
2018-11-21T03:52:48.320Z,15.65
2018-11-21T03:55:35.957Z,16.23
2018-11-21T03:58:23.857Z,16.60
2018-11-21T04:01:11.529Z,16.42
2018-11-21T04:03:59.382Z,16.30
2018-11-21T04:06:47.023Z,16.27
2018-11-21T04:09:34.671Z,16.67
2018-11-21T04:12:22.290Z,17.10
2018-11-21T04:15:11.059Z,16.80
2018-11-21T04:17:58.692Z,15.48
2018-11-21T04:20:46.310Z,16.10
2018-11-21T04:23:33.942Z,16.00
2018-11-21T04:29:09.217Z,17.65
2018-11-21T04:31:57.108Z,16.12
2018-11-21T04:34:44.717Z,17.55
2018-11-21T04:37:32.602Z,16.48
2018-11-21T04:40:20.211Z,17.15
2018-11-21T04:43:08.083Z,17.30
2018-11-21T04:45:55.833Z,17.17
2018-11-21T04:48:43.471Z,17.75
2018-11-21T04:51:31.164Z,17.65
2018-11-21T04:54:18.796Z,16.55
2018-11-21T04:57:06.440Z,17.02
2018-11-21T04:59:54.048Z,16.65
2018-11-21T05:02:41.679Z,20.15
2018-11-21T05:05:29.293Z,18.30
2018-11-21T05:08:16.981Z,16.48
2018-11-21T05:11:04.646Z,18.50
2018-11-21T05:13:52.288Z,18.17
2018-11-21T05:16:40.166Z,17.32
2018-11-21T05:19:27.887Z,19.37
2018-11-21T05:22:15.489Z,17.95
2018-11-21T05:25:03.142Z,17.85
2018-11-21T05:27:50.786Z,18.45
2018-11-21T05:30:38.442Z,18.75
2018-11-21T05:33:26.924Z,19.42
2018-11-21T05:36:14.681Z,18.07
2018-11-21T05:39:04.468Z,18.50
2018-11-21T05:41:52.309Z,20.32
2018-11-21T05:44:40.019Z,23.52
2018-11-21T05:47:08.412Z,18.98
2018-11-21T06:03:34.689Z,16.65
2018-11-21T06:06:24.905Z,17.87
2018-11-21T06:09:13.141Z,17.00
2018-11-21T06:12:04.492Z,16.77
2018-11-21T06:15:10.574Z,19.02
2018-11-21T06:17:58.214Z,16.20
2018-11-21T06:20:45.866Z,17.52
2018-11-21T06:23:33.480Z,17.07
2018-11-21T06:26:21.124Z,15.38
2018-11-21T06:29:08.761Z,17.05
2018-11-21T06:31:56.516Z,16.12
2018-11-21T06:34:44.144Z,16.73
2018-11-21T06:37:31.806Z,16.95
2018-11-21T06:40:19.547Z,16.10
2018-11-21T06:43:07.207Z,15.35
2018-11-21T06:45:54.831Z,15.35
2018-11-21T06:48:42.513Z,16.87
2018-11-21T06:51:35.202Z,17.27
2018-11-21T06:54:17.811Z,15.58
2018-11-21T06:57:05.810Z,18.32
2018-11-21T06:59:54.354Z,17.73
2018-11-21T07:02:42.199Z,16.42
2018-11-21T07:05:29.803Z,16.77
2018-11-21T07:08:17.179Z,15.53
2018-11-21T07:10:48.180Z,17.27
2018-11-21T07:13:35.831Z,16.65
2018-11-21T07:16:23.754Z,16.32
2018-11-21T07:19:11.496Z,16.27
2018-11-21T07:27:31.089Z,16.48
2018-11-21T07:50:13.259Z,15.08
2018-11-21T08:01:56.456Z,15.23
2018-11-21T08:05:03.271Z,18.27
2018-11-21T08:07:56.194Z,17.75
2018-11-21T08:11:03.254Z,17.15
2018-11-21T08:14:10.056Z,17.90
2018-11-21T08:17:16.902Z,18.15
2018-11-21T08:20:25.405Z,20.15
2018-11-21T08:23:32.219Z,21.75
2018-11-21T08:26:25.200Z,22.45
2018-11-21T08:29:13.050Z,23.12
2018-11-21T08:37:37.063Z,23.77
2018-11-21T08:40:24.909Z,21.95
2018-11-21T08:43:12.525Z,22.95
2018-11-21T08:46:00.210Z,22.48
2018-11-21T08:48:47.844Z,22.98
2018-11-21T08:51:35.423Z,22.77
2018-11-21T08:54:23.057Z,24.20
2018-11-21T08:57:10.705Z,22.35
2018-11-21T08:59:58.345Z,22.07
2018-11-21T09:02:46.003Z,21.82
2018-11-21T09:05:33.607Z,21.55
2018-11-21T09:08:21.249Z,18.92
2018-11-21T09:11:08.864Z,22.55
2018-11-21T09:13:56.661Z,19.15
2018-11-21T09:16:44.292Z,20.30
2018-11-21T09:19:31.962Z,18.67
2018-11-21T09:22:19.574Z,18.02
2018-11-21T09:25:07.869Z,18.95
2018-11-21T09:27:55.513Z,18.27
2018-11-21T09:30:43.350Z,17.50
2018-11-21T09:33:30.983Z,18.35
2018-11-21T09:36:18.604Z,17.07
2018-11-21T09:39:07.835Z,19.00
2018-11-21T09:41:55.402Z,18.32
2018-11-21T09:44:43.222Z,17.32
2018-11-21T09:47:30.864Z,19.27
2018-11-21T09:50:37.692Z,20.30
2018-11-21T09:53:25.347Z,19.12
2018-11-21T09:56:12.980Z,18.60
2018-11-21T09:59:00.654Z,17.07
2018-11-21T10:02:07.680Z,17.37
2018-11-21T10:04:55.741Z,16.82
2018-11-21T10:10:32.677Z,18.20
2018-11-21T10:13:00.864Z,17.55
2018-11-21T10:15:48.775Z,17.45
2018-11-21T10:18:37.595Z,20.85
2018-11-21T10:21:26.568Z,19.73
2018-11-21T10:24:14.207Z,20.65
2018-11-21T10:27:01.855Z,22.40
2018-11-21T10:29:49.493Z,22.95
2018-11-21T10:32:37.216Z,21.50
2018-11-21T10:35:24.873Z,21.77
2018-11-21T10:38:12.594Z,21.80
2018-11-21T10:41:00.288Z,23.10
2018-11-21T10:43:47.994Z,21.20
2018-11-21T10:46:35.578Z,22.05
2018-11-21T10:49:23.209Z,22.30
2018-11-21T10:52:11.076Z,22.05
2018-11-21T10:54:58.958Z,22.60
2018-11-21T10:57:46.594Z,22.17
2018-11-21T11:00:53.414Z,22.82
2018-11-21T11:04:00.230Z,22.35
2018-11-21T11:07:07.037Z,21.30
2018-11-21T11:10:13.865Z,24.20
2018-11-21T11:13:20.658Z,23.42
2018-11-21T11:16:27.453Z,22.05
2018-11-21T11:25:05.459Z,20.25
2018-11-21T11:28:14.590Z,19.80
2018-11-21T11:31:06.688Z,20.32
2018-11-21T11:34:13.491Z,18.70
2018-11-21T11:45:54.808Z,18.30
2018-11-21T11:49:01.827Z,19.12
2018-11-21T12:03:39.428Z,18.40
2018-11-21T12:13:18.274Z,19.35
2018-11-21T12:16:25.134Z,18.48
2018-11-21T12:19:31.932Z,18.60
2018-11-21T12:22:38.760Z,18.02
2018-11-21T13:05:08.182Z,18.65
2018-11-21T13:08:14.981Z,18.42
2018-11-21T13:11:21.775Z,18.15
2018-11-21T13:14:28.794Z,17.73
2018-11-21T13:17:35.585Z,17.95
2018-11-21T13:20:42.624Z,18.70
2018-11-21T13:23:49.423Z,17.87
2018-11-21T13:26:56.237Z,18.57
2018-11-21T13:30:03.038Z,17.60
2018-11-21T13:33:09.839Z,18.52
2018-11-21T13:36:16.718Z,18.75
2018-11-21T13:39:26.672Z,16.52
2018-11-21T13:42:33.470Z,18.05
2018-11-21T13:45:40.724Z,17.35
2018-11-21T13:48:47.502Z,17.73
2018-11-21T13:51:54.320Z,17.70
2018-11-21T13:54:37.734Z,18.52
2018-11-21T13:57:25.836Z,18.95
2018-11-21T14:00:13.452Z,18.35
2018-11-21T14:03:01.100Z,16.80
2018-11-21T14:05:48.742Z,17.65
2018-11-21T14:08:36.742Z,18.12
2018-11-21T14:11:24.378Z,19.10
2018-11-21T14:14:12.004Z,18.27
2018-11-21T14:16:59.989Z,18.30
2018-11-21T14:19:47.635Z,17.90
2018-11-21T14:22:35.292Z,18.10
2018-11-21T14:25:22.952Z,17.65
2018-11-21T14:28:10.606Z,17.67
2018-11-21T14:30:58.281Z,16.55
2018-11-21T14:33:45.942Z,18.40
2018-11-21T14:36:33.823Z,16.73
2018-11-21T14:39:21.480Z,18.12
2018-11-21T14:42:09.111Z,16.32
2018-11-21T14:44:56.810Z,17.87
2018-11-21T14:47:44.996Z,16.90
2018-11-21T14:50:33.545Z,17.35
2018-11-21T14:53:21.180Z,16.62
2018-11-21T14:56:08.814Z,16.93
2018-11-21T14:58:56.522Z,16.77
2018-11-21T15:01:44.149Z,17.15
2018-11-21T15:04:31.785Z,16.50
2018-11-21T15:07:19.421Z,17.62
2018-11-21T15:10:07.158Z,16.85
2018-11-21T15:12:54.817Z,15.20
2018-11-21T15:15:42.455Z,16.62
2018-11-21T15:18:30.110Z,18.32
2018-11-21T15:21:17.893Z,16.00
2018-11-21T15:24:05.553Z,16.60
2018-11-21T15:26:33.757Z,17.45
2018-11-21T15:29:21.421Z,17.87
2018-11-21T15:32:09.120Z,16.10
2018-11-21T15:34:56.774Z,18.12
2018-11-21T15:37:44.844Z,17.30
2018-11-21T15:40:32.557Z,18.20
2018-11-21T15:43:20.209Z,18.00
2018-11-21T15:45:48.829Z,17.82
2018-11-21T15:59:34.141Z,18.85
2018-11-21T16:02:21.748Z,17.82
2018-11-21T16:10:48.705Z,18.62
2018-11-21T16:13:16.922Z,18.82
2018-11-21T16:16:04.753Z,19.20
2018-11-21T16:18:52.398Z,20.50
2018-11-21T16:21:40.050Z,19.67
2018-11-21T16:24:27.942Z,19.27
2018-11-21T16:27:15.556Z,18.80
2018-11-21T16:33:02.717Z,19.30
2018-11-21T16:35:50.394Z,18.65
2018-11-21T16:38:38.036Z,18.27
2018-11-21T16:41:25.988Z,19.25
2018-11-21T16:44:13.562Z,17.40
2018-11-21T16:47:01.231Z,18.07
2018-11-21T16:49:48.925Z,17.12
2018-11-21T16:52:20.658Z,17.87
2018-11-21T16:55:09.194Z,16.70
2018-11-21T16:57:37.433Z,17.92
2018-11-21T17:00:26.941Z,17.12
2018-11-21T17:03:14.601Z,16.73
2018-11-21T17:06:02.574Z,17.87
2018-11-21T17:08:50.206Z,16.70
2018-11-21T17:11:37.864Z,15.45
2018-11-21T17:14:26.938Z,16.87
2018-11-21T17:17:14.596Z,16.62
2018-11-21T17:20:02.233Z,16.07
2018-11-21T17:22:51.453Z,15.88
2018-11-21T17:25:39.930Z,16.87
2018-11-21T17:28:27.554Z,18.57
2018-11-21T17:31:15.229Z,16.55
2018-11-21T17:34:02.870Z,17.20
2018-11-21T17:36:50.786Z,17.32
2018-11-21T17:39:19.005Z,17.57
2018-11-21T17:42:06.622Z,17.55
2018-11-21T17:44:54.244Z,17.82
2018-11-21T17:47:41.916Z,18.20
2018-11-21T17:50:29.601Z,17.85
2018-11-21T17:53:17.236Z,18.67
2018-11-21T17:56:04.990Z,17.42
2018-11-21T17:58:52.664Z,16.35
2018-11-21T18:01:40.416Z,17.12
2018-11-21T18:04:28.044Z,16.32
2018-11-21T18:07:15.669Z,17.87
2018-11-21T18:09:46.490Z,16.17
2018-11-21T18:12:34.183Z,16.52
2018-11-21T18:15:25.214Z,19.05
2018-11-21T18:18:12.910Z,18.32
2018-11-21T18:21:00.766Z,16.62
2018-11-21T18:23:29.058Z,17.40
2018-11-21T18:26:16.749Z,16.60
2018-11-21T18:29:04.567Z,17.75
2018-11-21T18:31:45.676Z,17.85
2018-11-21T18:34:26.257Z,17.35
2018-11-21T18:37:13.993Z,16.37
2018-11-21T18:40:01.719Z,18.65
2018-11-21T18:42:49.427Z,16.07
2018-11-21T18:45:38.935Z,16.15
2018-11-21T18:51:21.930Z,17.07
2018-11-21T18:54:09.732Z,16.62
2018-11-21T18:57:16.971Z,16.42
2018-11-21T19:00:24.044Z,16.32
2018-11-21T19:03:11.708Z,15.15
2018-11-21T19:05:59.751Z,16.60
2018-11-21T19:08:47.828Z,15.18
2018-11-21T19:14:42.384Z,15.83
2018-11-21T19:17:32.828Z,16.23
2018-11-21T19:20:20.699Z,15.88
2018-11-21T19:23:09.421Z,15.68
2018-11-21T19:25:57.048Z,14.68
2018-11-21T19:28:45.990Z,14.70
2018-11-21T19:31:33.194Z,14.90
2018-11-21T19:34:22.843Z,14.68
2018-11-21T19:37:10.950Z,15.45
2018-11-21T19:39:58.637Z,14.45
2018-11-21T19:42:26.841Z,15.83
2018-11-21T19:45:15.941Z,13.83
2018-11-21T19:48:03.573Z,15.18
2018-11-21T19:50:51.225Z,14.43
2018-11-21T19:53:39.958Z,15.32
2018-11-21T19:56:27.628Z,15.20
2018-11-21T19:59:15.442Z,16.50
2018-11-21T20:02:03.184Z,17.12
2018-11-21T20:04:50.938Z,15.25
2018-11-21T20:07:39.553Z,14.70
2018-11-21T20:10:27.320Z,16.90
2018-11-21T20:13:15.043Z,15.25
2018-11-21T20:16:02.702Z,16.35
2018-11-21T20:18:50.430Z,15.45
2018-11-21T20:21:38.276Z,14.93
2018-11-21T20:24:26.014Z,14.15
2018-11-21T20:27:52.282Z,14.80
2018-11-21T20:30:40.838Z,15.32
2018-11-21T20:33:09.089Z,16.27
2018-11-21T20:35:56.761Z,14.43
2018-11-21T20:38:45.749Z,15.55
2018-11-21T20:41:32.163Z,14.93
2018-11-21T20:44:19.795Z,16.07
2018-11-21T20:47:07.710Z,15.48
2018-11-21T20:49:55.444Z,15.25
2018-11-21T20:55:51.012Z,16.55
2018-11-21T20:58:38.831Z,13.90
2018-11-21T21:01:26.482Z,16.95
2018-11-21T21:04:14.123Z,15.68
2018-11-21T21:07:01.769Z,15.88
2018-11-21T21:09:49.416Z,15.48
2018-11-21T21:12:37.141Z,14.75
2018-11-21T21:15:24.935Z,13.65
2018-11-21T21:18:12.570Z,16.62
2018-11-21T21:21:00.663Z,16.05
2018-11-21T21:23:48.532Z,16.67
2018-11-21T21:26:36.161Z,16.50
2018-11-21T21:29:23.814Z,14.25
2018-11-21T21:32:11.472Z,16.87
2018-11-21T21:34:59.149Z,15.83
2018-11-21T21:37:46.792Z,15.13
2018-11-21T21:40:34.446Z,15.15
2018-11-21T21:43:22.435Z,16.52
2018-11-21T21:46:10.073Z,16.73
2018-11-21T21:48:57.747Z,14.93
2018-11-21T21:51:45.440Z,16.00
2018-11-21T21:54:33.076Z,16.07
2018-11-21T21:57:20.693Z,15.55
2018-11-21T22:00:09.529Z,14.23
2018-11-21T22:02:58.173Z,15.60
2018-11-21T22:08:45.023Z,13.90
2018-11-21T22:11:32.652Z,14.50
2018-11-21T22:14:20.331Z,15.45
2018-11-21T22:17:07.954Z,14.10
2018-11-21T22:19:55.593Z,13.70
2018-11-21T22:22:43.221Z,14.23
2018-11-21T22:25:30.874Z,14.60
2018-11-21T22:28:18.481Z,14.73
2018-11-21T22:31:06.335Z,13.58
2018-11-21T22:33:53.964Z,13.83
2018-11-21T22:36:41.829Z,12.90
2018-11-21T22:39:29.881Z,13.10
2018-11-21T22:42:17.533Z,14.78
2018-11-21T22:44:45.729Z,13.22
2018-11-21T22:47:33.427Z,15.05
2018-11-21T22:50:22.401Z,14.05
2018-11-21T22:53:10.031Z,14.47
2018-11-21T22:55:57.668Z,13.65
2018-11-21T22:58:45.300Z,14.10
2018-11-21T23:01:34.468Z,16.05
2018-11-21T23:04:22.118Z,15.88
2018-11-21T23:07:10.247Z,14.85
2018-11-21T23:09:57.866Z,13.60
2018-11-21T23:12:45.514Z,13.30
2018-11-21T23:15:33.346Z,13.58
2018-11-21T23:18:20.964Z,12.65
2018-11-21T23:21:08.608Z,14.70
2018-11-21T23:23:56.524Z,14.00
2018-11-21T23:26:44.174Z,12.68
2018-11-21T23:29:31.784Z,14.60
2018-11-21T23:32:19.430Z,15.23
2018-11-21T23:35:07.428Z,13.53
2018-11-21T23:37:55.036Z,14.50
2018-11-21T23:40:43.179Z,14.47
2018-11-21T23:43:30.793Z,14.80
2018-11-21T23:46:18.443Z,14.25
2018-11-21T23:49:06.301Z,13.78
2018-11-21T23:51:54.184Z,15.28
2018-11-21T23:54:41.809Z,14.80
2018-11-21T23:57:29.701Z,13.68
